Meteorological Aerodrome Report (METAR)

METAR

Data at: 1700 UTC 20 Sep 2021

METAR for:NVSC (Sola/Vanua Lava Arpt, TO, NV)
Text:NVSC 201500Z 11008KT 9999 BKN020 IVC040 27/21 Q////
Temperature: 27.0°C ( 81°F)
Dewpoint: 21.0°C ( 70°F) [RH = 70%]
Winds:from the ESE (110 degrees) at 9 MPH (8 knots; 4.1 m/s)
Visibility:6 or more sm (10+ km)
Ceiling:2000 feet AGL
Clouds: broken clouds at 2000 feet AGL

METAR

Data at: 1700 UTC 20 Sep 2021

METAR for:NVSG (Longana Arpt, PA, NV)
Text:NVSG 201500Z AUTO 16004KT ///// // NCD 25/20 Q1013
Temperature: 25.0°C ( 77°F)
Dewpoint: 20.0°C ( 68°F) [RH = 74%]
Pressure (altimeter):29.91 inches Hg (1013.0 mb)
Winds:from the SSE (160 degrees) at 5 MPH (4 knots; 2.1 m/s)
Ceiling:at least 12,000 feet AGL
Clouds:sky clear below 12,000 feet AGL

METAR

Data at: 1700 UTC 20 Sep 2021

METAR for:NVSS (Santo/Pekoa Intl, SA, NV)
Text:NVSS 201500Z 13007KT 9999 BKN020 25/20 Q1012
Temperature: 25.0°C ( 77°F)
Dewpoint: 20.0°C ( 68°F) [RH = 74%]
Pressure (altimeter):29.88 inches Hg (1012.0 mb)
Winds:from the SE (130 degrees) at 8 MPH (7 knots; 3.6 m/s)
Visibility:6 or more sm (10+ km)
Ceiling:2000 feet AGL
Clouds: broken clouds at 2000 feet AGL

METAR

Data at: 1700 UTC 20 Sep 2021

METAR for:NVSL (Malekula Isl/Lamap, MA, NV)
Text:No data found

METAR

Data at: 1700 UTC 20 Sep 2021

METAR for:NVSP (Norsup Arpt, MA, NV)
Text:No data found

METAR

Data at: 1700 UTC 20 Sep 2021

METAR for:NVVV (Efate/Bauerfield Int, SE, NV)
Text:NVVV 201500Z 11001KT 9999 BKN020 OVC110 21/19 Q1014
Temperature: 21.0°C ( 70°F)
Dewpoint: 19.0°C ( 66°F) [RH = 88%]
Pressure (altimeter):29.94 inches Hg (1014.0 mb)
Winds:from the ESE (110 degrees) at 1 MPH (1 knots; 0.5 m/s)
Visibility:6 or more sm (10+ km)
Ceiling:2000 feet AGL
Clouds: broken clouds at 2000 feet AGL, overcast cloud deck at 11000 feet AGL

METAR

Data at: 1700 UTC 20 Sep 2021

METAR for:NVVW (Tanna Arpt, TA, NV)
Text:NVVW 201500Z AUTO 00000KT ///// // NCD 19/17 Q1014
Temperature: 19.0°C ( 66°F)
Dewpoint: 17.0°C ( 63°F) [RH = 88%]
Pressure (altimeter):29.94 inches Hg (1014.0 mb)
Winds:calm
Ceiling:at least 12,000 feet AGL
Clouds:sky clear below 12,000 feet AGL

METAR

Data at: 1700 UTC 20 Sep 2021

METAR for:NVVA (Aneityum/Mystery Isl, TA, NV)
Text:NVVA 201500Z 09006KT 9999 FEW020 SCT120 22/13 Q1015
Temperature: 22.0°C ( 72°F)
Dewpoint: 13.0°C ( 55°F) [RH = 57%]
Pressure (altimeter):29.97 inches Hg (1015.0 mb)
Winds:from the E (90 degrees) at 7 MPH (6 knots; 3.1 m/s)
Visibility:6 or more sm (10+ km)
Ceiling:at least 12,000 feet AGL
Clouds: few clouds at 2000 feet AGL, scattered clouds at 12000 feet AGL

METAR

Data at: 1700 UTC 20 Sep 2021

NVVV 201500Z 11001KT 9999 BKN020 OVC110 21/19 Q1014
NVSC 201500Z 11008KT 9999 BKN020 IVC040 27/21 Q////
NVSG 201500Z AUTO 16004KT ///// // NCD 25/20 Q1013
NVSS 201500Z 13007KT 9999 BKN020 25/20 Q1012
No Data available for NVSL
No Data available for NVSP
NVVW 201500Z AUTO 00000KT ///// // NCD 19/17 Q1014
NVVA 201500Z 09006KT 9999 FEW020 SCT120 22/13 Q1015